Time;durP1;ratioP1;P1;durP2;ratioP2;P2;SDS_P1;SDS_P2;PMS_P1;PMS_P2;Temp;Humidity;BMP_temperature;BMP_pressure;BME280_temperature;BME280_humidity;BME280_pressure;Samples;Min_cycle;Max_cycle;Signal;HPM_P1;HPM_P2
2021/06/12 05:01:17;;;;;;;2.42;1.73;;;;;;;;;;4946559;28;962182;-74
2021/06/12 05:03:42;;;;;;;3.60;1.88;;;;;;;;;;5040495;28;20116;-77
2021/06/12 05:06:07;;;;;;;2.57;2.00;;;;;;;;;;5037717;28;20013;-74
2021/06/12 05:08:32;;;;;;;3.27;1.80;;;;;;;;;;5036488;28;20013;-76
2021/06/12 05:10:58;;;;;;;2.10;1.87;;;;;;;;;;5040522;28;20087;-74
2021/06/12 05:13:23;;;;;;;3.50;1.90;;;;;;;;;;5039312;28;20276;-78
2021/06/12 05:15:48;;;;;;;2.77;2.00;;;;;;;;;;5037416;28;20021;-77
2021/06/12 05:18:15;;;;;;;3.22;2.13;;;;;;;;;;5042543;28;20278;-78
2021/06/12 05:20:40;;;;;;;3.63;1.65;;;;;;;;;;5018542;28;20376;-78
2021/06/12 05:23:06;;;;;;;3.20;1.70;;;;;;;;;;5021504;28;20036;-77
2021/06/12 05:25:31;;;;;;;2.33;1.80;;;;;;;;;;5043041;28;20362;-76
2021/06/12 05:27:57;;;;;;;2.08;1.88;;;;;;;;;;5039137;28;20635;-73
2021/06/12 05:30:22;;;;;;;3.53;2.00;;;;;;;;;;5039949;28;20037;-74
2021/06/12 05:32:47;;;;;;;4.15;1.90;;;;;;;;;;5017653;28;20013;-76
2021/06/12 05:35:13;;;;;;;2.50;2.17;;;;;;;;;;5037880;28;20033;-75
2021/06/12 05:37:38;;;;;;;3.38;2.15;;;;;;;;;;5039411;28;20283;-73
2021/06/12 05:40:04;;;;;;;3.90;2.22;;;;;;;;;;5042876;28;20103;-75
2021/06/12 05:42:29;;;;;;;4.43;2.30;;;;;;;;;;5039422;28;20119;-76
2021/06/12 05:44:55;;;;;;;3.00;2.20;;;;;;;;;;5041045;28;20086;-75
2021/06/12 05:47:20;;;;;;;2.85;2.20;;;;;;;;;;5040382;28;20029;-74
2021/06/12 05:49:45;;;;;;;2.57;2.30;;;;;;;;;;5040020;28;20086;-76
2021/06/12 05:52:10;;;;;;;6.87;2.10;;;;;;;;;;5042447;28;20869;-72
2021/06/12 05:54:36;;;;;;;4.03;2.00;;;;;;;;;;5033554;28;20311;-74
2021/06/12 05:57:01;;;;;;;3.47;2.10;;;;;;;;;;5037918;28;20024;-73
2021/06/12 06:02:01;;;;;;;4.13;1.92;;;;;;;;;;5042181;22;20736;-70
2021/06/12 06:04:26;;;;;;;5.85;2.13;;;;;;;;;;4989630;28;20045;-71
2021/06/12 06:06:52;;;;;;;2.60;2.10;;;;;;;;;;5028038;28;20018;-77
2021/06/12 06:09:17;;;;;;;3.83;2.00;;;;;;;;;;5028038;28;20087;-74
2021/06/12 06:11:42;;;;;;;2.28;2.05;;;;;;;;;;5027611;28;20025;-72
2021/06/12 06:14:08;;;;;;;3.93;2.13;;;;;;;;;;5027577;28;20030;-74
2021/06/12 06:16:33;;;;;;;3.03;2.20;;;;;;;;;;5008960;28;20858;-70
2021/06/12 06:18:58;;;;;;;3.13;2.10;;;;;;;;;;5027634;28;20034;-71
2021/06/12 06:23:06;;;;;;;3.97;2.20;;;;;;;;;;4846373;27;20480;-69
2021/06/12 06:25:31;;;;;;;3.08;2.25;;;;;;;;;;5012294;28;20252;-70
2021/06/12 06:27:57;;;;;;;4.05;2.20;;;;;;;;;;5010362;28;20022;-69
2021/06/12 06:30:22;;;;;;;3.03;2.10;;;;;;;;;;5005678;28;20503;-70
2021/06/12 06:32:47;;;;;;;3.00;1.92;;;;;;;;;;5013360;28;20029;-70
2021/06/12 06:35:14;;;;;;;2.75;2.05;;;;;;;;;;5006084;28;20037;-69
2021/06/12 06:37:40;;;;;;;3.22;2.22;;;;;;;;;;5005357;28;20056;-69
2021/06/12 06:40:05;;;;;;;3.17;1.85;;;;;;;;;;5007816;28;20058;-69
2021/06/12 06:42:30;;;;;;;2.88;1.92;;;;;;;;;;5003948;28;20034;-71
2021/06/12 06:44:56;;;;;;;3.07;2.17;;;;;;;;;;5006544;28;20769;-71
2021/06/12 06:47:21;;;;;;;3.00;2.30;;;;;;;;;;5008491;28;20485;-70
2021/06/12 06:49:46;;;;;;;2.90;2.27;;;;;;;;;;5004764;28;20388;-71
2021/06/12 06:52:11;;;;;;;3.37;2.00;;;;;;;;;;5007338;28;20288;-70
2021/06/12 06:54:37;;;;;;;2.55;2.10;;;;;;;;;;5004379;28;20307;-72
2021/06/12 06:57:02;;;;;;;3.57;2.43;;;;;;;;;;5006784;28;20034;-66
2021/06/12 06:59:27;;;;;;;2.47;2.03;;;;;;;;;;5004233;28;20341;-66
2021/06/12 07:01:53;;;;;;;4.70;2.40;;;;;;;;;;5008923;28;20116;-67
2021/06/12 07:04:18;;;;;;;5.27;2.60;;;;;;;;;;5003721;28;20455;-66
2021/06/12 07:06:43;;;;;;;2.50;1.90;;;;;;;;;;5004018;28;20516;-66
2021/06/12 07:09:08;;;;;;;2.70;2.20;;;;;;;;;;5004142;28;20046;-69
2021/06/12 07:11:34;;;;;;;3.37;2.43;;;;;;;;;;5004720;28;20487;-68
2021/06/12 07:13:59;;;;;;;3.70;2.40;;;;;;;;;;5004309;28;20504;-67
2021/06/12 07:16:24;;;;;;;3.25;2.20;;;;;;;;;;5004377;28;20277;-68
2021/06/12 07:18:49;;;;;;;3.70;2.40;;;;;;;;;;5005688;28;20030;-69
2021/06/12 07:21:15;;;;;;;3.40;2.40;;;;;;;;;;5003831;28;20293;-70
2021/06/12 07:23:40;;;;;;;3.38;2.28;;;;;;;;;;5002301;28;20420;-70
2021/06/12 07:26:05;;;;;;;2.53;2.20;;;;;;;;;;5020247;28;20045;-70
2021/06/12 07:28:30;;;;;;;3.10;2.30;;;;;;;;;;5017465;28;20628;-70
2021/06/12 07:30:56;;;;;;;2.50;2.03;;;;;;;;;;5016969;28;20230;-70
2021/06/12 07:33:21;;;;;;;2.90;2.10;;;;;;;;;;4994992;28;20022;-70
2021/06/12 07:35:47;;;;;;;3.70;2.60;;;;;;;;;;4989590;28;20041;-70
2021/06/12 07:38:12;;;;;;;3.15;2.20;;;;;;;;;;5005995;28;20053;-70
2021/06/12 07:40:37;;;;;;;2.50;2.10;;;;;;;;;;5005977;28;20078;-70
2021/06/12 07:43:03;;;;;;;2.28;2.08;;;;;;;;;;4990814;28;20030;-70
2021/06/12 07:45:28;;;;;;;2.58;2.30;;;;;;;;;;4990737;28;20018;-70
2021/06/12 07:47:53;;;;;;;2.63;2.10;;;;;;;;;;5005925;28;20010;-70
2021/06/12 07:50:19;;;;;;;3.67;2.47;;;;;;;;;;4990577;28;20037;-70
2021/06/12 07:52:44;;;;;;;3.00;2.70;;;;;;;;;;4990578;28;20412;-70
2021/06/12 07:55:10;;;;;;;4.33;2.40;;;;;;;;;;4990706;28;20034;-70
2021/06/12 07:57:35;;;;;;;3.10;2.20;;;;;;;;;;4990572;28;20109;-70
2021/06/12 08:00:00;;;;;;;3.10;2.38;;;;;;;;;;4990305;28;20034;-70
2021/06/12 08:02:26;;;;;;;3.17;2.60;;;;;;;;;;4990688;28;20033;-70
2021/06/12 08:04:52;;;;;;;3.53;2.53;;;;;;;;;;4989884;28;20027;-70
2021/06/12 08:07:17;;;;;;;3.85;2.45;;;;;;;;;;4990091;28;20033;-70
2021/06/12 08:09:43;;;;;;;3.58;2.30;;;;;;;;;;4990146;28;20018;-70
2021/06/12 08:12:28;;;;;;;3.42;2.53;;;;;;;;;;4989255;28;20368;-70
2021/06/12 08:14:53;;;;;;;2.85;2.33;;;;;;;;;;4989840;28;20054;-70
2021/06/12 08:17:19;;;;;;;4.90;2.57;;;;;;;;;;4990156;28;20068;-70
2021/06/12 08:19:44;;;;;;;2.70;2.20;;;;;;;;;;4990075;28;20030;-69
2021/06/12 08:22:11;;;;;;;3.17;2.50;;;;;;;;;;4990245;28;20062;-70
2021/06/12 08:24:36;;;;;;;2.95;2.38;;;;;;;;;;4990312;28;20023;-70
2021/06/12 08:27:02;;;;;;;2.70;2.30;;;;;;;;;;4990306;28;20033;-70
2021/06/12 08:29:27;;;;;;;3.65;2.25;;;;;;;;;;4990296;28;20386;-69
2021/06/12 08:31:52;;;;;;;3.73;2.10;;;;;;;;;;4966400;28;20080;-70
2021/06/12 08:34:18;;;;;;;2.90;2.60;;;;;;;;;;4990909;28;20029;-70
2021/06/12 08:36:43;;;;;;;3.35;2.53;;;;;;;;;;4989853;28;20265;-70
2021/06/12 08:39:08;;;;;;;3.93;2.47;;;;;;;;;;5004672;28;20130;-70
2021/06/12 08:41:33;;;;;;;3.00;2.60;;;;;;;;;;4989770;28;20293;-70
2021/06/12 08:43:59;;;;;;;4.13;2.30;;;;;;;;;;5004547;28;20277;-70
2021/06/12 08:46:25;;;;;;;3.25;2.47;;;;;;;;;;4987917;28;20411;-70
2021/06/12 08:48:52;;;;;;;3.83;2.72;;;;;;;;;;5004464;28;20484;-69
2021/06/12 08:51:17;;;;;;;2.55;2.35;;;;;;;;;;4989526;28;20085;-70
2021/06/12 08:53:42;;;;;;;3.53;2.33;;;;;;;;;;4989227;28;20526;-70
2021/06/12 08:56:07;;;;;;;2.93;2.57;;;;;;;;;;4989240;28;20262;-70
2021/06/12 08:58:33;;;;;;;3.10;2.50;;;;;;;;;;4989402;28;20265;-69
2021/06/12 09:00:58;;;;;;;3.07;2.60;;;;;;;;;;4988591;28;20121;-70
2021/06/12 09:03:25;;;;;;;3.28;2.45;;;;;;;;;;4989184;28;20101;-70
2021/06/12 09:05:50;;;;;;;2.90;2.53;;;;;;;;;;5004266;28;20160;-70
2021/06/12 09:08:22;;;;;;;2.55;2.28;;;;;;;;;;4989368;28;20113;-70
2021/06/12 09:10:51;;;;;;;3.97;3.20;;;;;;;;;;4990835;28;20377;-77
2021/06/12 09:13:16;;;;;;;3.78;2.60;;;;;;;;;;4991441;28;20026;-76
2021/06/12 09:15:41;;;;;;;3.85;2.80;;;;;;;;;;4992029;28;20113;-77
2021/06/12 09:18:07;;;;;;;5.65;3.35;;;;;;;;;;5006927;28;20516;-75
2021/06/12 09:20:32;;;;;;;3.80;2.70;;;;;;;;;;4999347;28;20084;-75
2021/06/12 09:23:06;;;;;;;5.23;2.83;;;;;;;;;;4999222;28;20043;-74
2021/06/12 09:25:36;;;;;;;3.80;2.80;;;;;;;;;;5007917;28;20022;-79
2021/06/12 09:28:01;;;;;;;5.30;2.70;;;;;;;;;;5022662;28;20028;-76
2021/06/12 09:30:28;;;;;;;4.30;2.60;;;;;;;;;;5008729;28;20029;-76
2021/06/12 09:32:53;;;;;;;3.78;3.10;;;;;;;;;;5005217;28;20025;-76
2021/06/12 09:35:19;;;;;;;4.38;3.10;;;;;;;;;;5002923;28;20029;-77
2021/06/12 09:37:45;;;;;;;4.67;2.67;;;;;;;;;;5021434;28;20028;-77
2021/06/12 09:40:14;;;;;;;4.13;2.95;;;;;;;;;;4991835;28;20018;-80
2021/06/12 09:42:39;;;;;;;2.97;2.45;;;;;;;;;;4991346;28;20050;-77
2021/06/12 09:45:05;;;;;;;3.83;2.77;;;;;;;;;;4992630;28;20018;-78
2021/06/12 09:47:31;;;;;;;3.03;2.60;;;;;;;;;;4990993;28;20613;-80
2021/06/12 09:49:59;;;;;;;3.70;2.70;;;;;;;;;;5012126;28;20184;-79
2021/06/12 09:52:24;;;;;;;3.53;2.38;;;;;;;;;;5012391;28;20033;-80
2021/06/12 09:54:51;;;;;;;3.97;2.40;;;;;;;;;;5018413;28;20060;-78
2021/06/12 09:57:19;;;;;;;3.88;2.63;;;;;;;;;;5006367;28;20625;-78
2021/06/12 09:59:51;;;;;;;5.07;2.42;;;;;;;;;;4993440;28;20499;-75
2021/06/12 10:02:35;;;;;;;6.38;3.97;;;;;;;;;;4999294;28;20027;-75
2021/06/12 10:05:01;;;;;;;5.03;2.80;;;;;;;;;;4994322;28;20117;-74
2021/06/12 10:07:26;;;;;;;4.20;2.90;;;;;;;;;;5025522;28;20088;-75
2021/06/12 10:09:51;;;;;;;4.57;3.15;;;;;;;;;;5020546;28;20798;-69
2021/06/12 10:12:17;;;;;;;4.65;2.90;;;;;;;;;;5029350;28;20365;-71
2021/06/12 10:14:42;;;;;;;4.13;2.75;;;;;;;;;;5035293;28;20018;-72
2021/06/12 10:17:08;;;;;;;4.28;2.78;;;;;;;;;;4993848;28;20037;-74
2021/06/12 10:19:33;;;;;;;3.77;2.80;;;;;;;;;;5013770;28;20068;-78
2021/06/12 10:21:58;;;;;;;4.85;3.13;;;;;;;;;;5017495;28;20046;-78
2021/06/12 10:24:23;;;;;;;6.93;3.40;;;;;;;;;;5010314;28;20381;-73
2021/06/12 10:26:49;;;;;;;4.10;2.88;;;;;;;;;;5024787;28;20377;-72
2021/06/12 10:29:16;;;;;;;4.35;2.92;;;;;;;;;;5010508;28;20025;-71
2021/06/12 10:31:41;;;;;;;4.57;3.00;;;;;;;;;;5024144;28;20076;-73
2021/06/12 10:34:07;;;;;;;4.07;3.10;;;;;;;;;;5024458;28;20513;-75
2021/06/12 10:36:32;;;;;;;4.22;2.92;;;;;;;;;;5024325;28;20483;-73
2021/06/12 10:38:57;;;;;;;9.65;5.15;;;;;;;;;;5009590;28;20204;-75
2021/06/12 10:41:27;;;;;;;5.53;3.65;;;;;;;;;;5010046;28;20027;-75
2021/06/12 10:43:53;;;;;;;5.22;3.38;;;;;;;;;;5009095;28;20030;-73
2021/06/12 10:46:23;;;;;;;4.07;3.00;;;;;;;;;;5009276;28;20021;-77
2021/06/12 10:48:54;;;;;;;;;;;;;;;;;;5025534;28;20493;-74
2021/06/12 10:51:26;;;;;;;4.82;2.88;;;;;;;;;;5010172;28;19999;-73
2021/06/12 10:54:30;;;;;;;3.72;2.97;;;;;;;;;;5010222;28;20041;-74
2021/06/12 10:56:59;;;;;;;4.25;2.80;;;;;;;;;;5010843;28;20037;-74
2021/06/12 10:59:36;;;;;;;4.00;2.78;;;;;;;;;;5009662;28;20500;-73
2021/06/12 11:02:03;;;;;;;3.42;2.97;;;;;;;;;;5009232;28;20026;-72
2021/06/12 11:04:42;;;;;;;4.85;2.90;;;;;;;;;;5008856;28;20029;-74
2021/06/12 11:07:26;;;;;;;4.28;2.75;;;;;;;;;;5024505;28;20061;-73
2021/06/12 11:09:52;;;;;;;3.13;2.70;;;;;;;;;;5027277;28;20013;-74
2021/06/12 11:12:17;;;;;;;3.35;3.03;;;;;;;;;;5029180;28;20566;-76
2021/06/12 11:14:59;;;;;;;3.40;2.95;;;;;;;;;;5029027;28;20018;-75
2021/06/12 11:17:24;;;;;;;5.07;3.00;;;;;;;;;;5013926;28;20026;-76
2021/06/12 11:19:58;;;;;;;6.13;3.10;;;;;;;;;;5013720;28;20555;-75
2021/06/12 11:22:36;;;;;;;6.50;3.38;;;;;;;;;;5013085;28;20056;-74
2021/06/12 11:25:07;;;;;;;9.43;4.38;;;;;;;;;;5008648;28;20032;-69
2021/06/12 11:27:34;;;;;;;8.75;3.88;;;;;;;;;;5002470;28;20560;-70
2021/06/12 11:30:18;;;;;;;6.95;3.42;;;;;;;;;;4997146;28;20070;-69
2021/06/12 11:32:44;;;;;;;7.63;4.00;;;;;;;;;;4999930;28;20013;-69
2021/06/12 11:35:09;;;;;;;7.30;3.60;;;;;;;;;;4995916;28;20015;-72
2021/06/12 11:37:34;;;;;;;5.30;3.88;;;;;;;;;;4998262;28;20022;-72
2021/06/12 11:40:02;;;;;;;5.75;3.92;;;;;;;;;;5000844;28;20497;-72
2021/06/12 11:42:41;;;;;;;20.40;12.18;;;;;;;;;;5006999;28;20019;-71
2021/06/12 11:45:15;;;;;;;13.57;7.30;;;;;;;;;;4992859;28;20022;-72
2021/06/12 11:47:40;;;;;;;8.38;5.45;;;;;;;;;;4992261;28;20501;-72
2021/06/12 11:50:06;;;;;;;5.93;3.58;;;;;;;;;;4991947;28;20025;-70
2021/06/12 11:52:37;;;;;;;3.90;3.40;;;;;;;;;;5011500;28;20030;-72
2021/06/12 11:55:16;;;;;;;6.50;3.80;;;;;;;;;;5011841;28;20572;-74
2021/06/12 11:57:48;;;;;;;4.40;2.90;;;;;;;;;;5026696;28;20022;-70
2021/06/12 12:00:33;;;;;;;4.90;2.90;;;;;;;;;;5011250;28;20025;-71
2021/06/12 12:03:01;;;;;;;4.55;2.90;;;;;;;;;;5011073;28;20020;-75
2021/06/12 12:05:30;;;;;;;7.25;4.15;;;;;;;;;;5007084;28;20019;-74
2021/06/12 12:07:55;;;;;;;4.67;3.33;;;;;;;;;;4991292;28;20417;-74
2021/06/12 12:10:24;;;;;;;4.90;3.00;;;;;;;;;;4991850;28;20033;-74
2021/06/12 12:12:50;;;;;;;6.70;3.45;;;;;;;;;;5006072;28;20503;-75
2021/06/12 12:15:15;;;;;;;6.43;3.13;;;;;;;;;;5004140;28;20070;-73
2021/06/12 12:17:40;;;;;;;11.23;3.47;;;;;;;;;;5005615;28;20030;-73
2021/06/12 12:20:08;;;;;;;9.03;3.43;;;;;;;;;;5010512;28;20470;-72
2021/06/12 12:22:50;;;;;;;6.90;3.10;;;;;;;;;;5010737;28;20042;-74
2021/06/12 12:25:16;;;;;;;6.57;3.72;;;;;;;;;;5025372;28;20025;-74
2021/06/12 12:27:43;;;;;;;5.53;3.15;;;;;;;;;;5011192;28;20030;-76
2021/06/12 12:30:08;;;;;;;7.30;3.55;;;;;;;;;;4999131;28;20023;-75
2021/06/12 12:32:34;;;;;;;6.03;3.47;;;;;;;;;;4999389;28;20049;-73
2021/06/12 12:35:09;;;;;;;6.35;3.75;;;;;;;;;;4991763;28;20030;-74
2021/06/12 12:37:34;;;;;;;6.22;3.05;;;;;;;;;;5008773;28;20018;-74
2021/06/12 12:39:59;;;;;;;4.10;2.83;;;;;;;;;;4993262;28;20037;-74
2021/06/12 12:42:25;;;;;;;6.37;3.07;;;;;;;;;;5000553;28;20030;-75
2021/06/12 12:44:50;;;;;;;6.93;3.00;;;;;;;;;;5019735;28;20023;-74
2021/06/12 12:47:20;;;;;;;4.40;2.60;;;;;;;;;;4998085;28;20034;-75
2021/06/12 12:49:45;;;;;;;4.22;2.63;;;;;;;;;;5017178;28;20481;-75
2021/06/12 12:52:17;;;;;;;4.20;2.67;;;;;;;;;;5002313;28;20084;-74
2021/06/12 12:54:42;;;;;;;3.78;2.50;;;;;;;;;;5007190;28;20119;-72
2021/06/12 12:57:08;;;;;;;3.43;2.43;;;;;;;;;;5026433;28;20512;-72
2021/06/12 12:59:34;;;;;;;4.38;2.60;;;;;;;;;;5002374;28;20277;-72
2021/06/12 13:02:00;;;;;;;6.07;3.05;;;;;;;;;;4999848;28;20050;-75
2021/06/12 13:04:29;;;;;;;5.60;2.97;;;;;;;;;;5000924;28;20088;-74
2021/06/12 13:07:03;;;;;;;7.10;2.95;;;;;;;;;;4991802;28;20029;-73
2021/06/12 13:09:28;;;;;;;3.90;2.90;;;;;;;;;;4992504;28;20026;-76
2021/06/12 13:11:54;;;;;;;4.78;3.17;;;;;;;;;;5005887;28;20614;-75
2021/06/12 13:14:26;;;;;;;4.28;2.67;;;;;;;;;;4990384;28;20033;-77
2021/06/12 13:17:11;;;;;;;5.30;2.65;;;;;;;;;;4989590;28;20850;-73
2021/06/12 13:19:41;;;;;;;7.18;4.60;;;;;;;;;;4988219;28;20029;-75
2021/06/12 13:22:06;;;;;;;5.13;3.60;;;;;;;;;;5005317;28;20501;-75
2021/06/12 13:24:50;;;;;;;4.97;3.10;;;;;;;;;;4991477;28;20035;-74
2021/06/12 13:27:28;;;;;;;6.18;3.70;;;;;;;;;;4989337;28;20023;-74
2021/06/12 13:29:53;;;;;;;9.00;3.50;;;;;;;;;;4988880;28;20030;-74
2021/06/12 13:32:19;;;;;;;6.67;3.60;;;;;;;;;;4988451;28;20124;-74
2021/06/12 13:34:44;;;;;;;7.13;3.20;;;;;;;;;;4988165;28;20062;-73
2021/06/12 13:37:09;;;;;;;6.83;3.57;;;;;;;;;;4988692;28;20089;-73
2021/06/12 13:39:35;;;;;;;4.30;3.00;;;;;;;;;;5002541;28;20038;-72
2021/06/12 13:42:06;;;;;;;6.60;3.10;;;;;;;;;;4988590;28;20047;-71
2021/06/12 13:44:31;;;;;;;5.68;3.85;;;;;;;;;;4987277;28;20030;-70
2021/06/12 13:46:56;;;;;;;5.07;3.00;;;;;;;;;;4988705;28;20033;-73
2021/06/12 13:49:22;;;;;;;4.87;3.10;;;;;;;;;;4989712;28;20037;-73
2021/06/12 13:51:47;;;;;;;6.47;2.90;;;;;;;;;;4989516;28;20036;-72
2021/06/12 13:54:12;;;;;;;3.93;2.73;;;;;;;;;;4988138;28;20429;-73
2021/06/12 13:56:41;;;;;;;6.73;3.27;;;;;;;;;;4988090;28;20416;-75
2021/06/12 13:59:06;;;;;;;4.97;3.22;;;;;;;;;;4988323;28;20531;-75
2021/06/12 14:01:31;;;;;;;5.47;3.33;;;;;;;;;;4987651;28;20034;-72
2021/06/12 14:03:57;;;;;;;5.85;3.28;;;;;;;;;;4988201;28;20034;-71
2021/06/12 14:06:22;;;;;;;5.60;3.10;;;;;;;;;;4987966;28;20018;-73
2021/06/12 14:08:47;;;;;;;5.97;3.50;;;;;;;;;;4987447;28;20032;-72
2021/06/12 14:11:12;;;;;;;5.63;3.00;;;;;;;;;;4988115;28;20515;-73
2021/06/12 14:13:38;;;;;;;5.97;3.40;;;;;;;;;;5004985;28;20049;-74
2021/06/12 14:16:03;;;;;;;5.37;3.90;;;;;;;;;;4988304;28;20068;-74
2021/06/12 14:18:28;;;;;;;6.15;3.30;;;;;;;;;;4988430;28;20018;-75
2021/06/12 14:20:54;;;;;;;7.77;4.13;;;;;;;;;;4987701;28;20025;-73
2021/06/12 14:23:19;;;;;;;4.32;3.20;;;;;;;;;;4988176;28;20026;-73
2021/06/12 14:25:47;;;;;;;4.32;2.83;;;;;;;;;;4988829;28;20105;-74
2021/06/12 14:28:14;;;;;;;4.65;2.80;;;;;;;;;;4987778;28;20109;-70
2021/06/12 14:30:39;;;;;;;4.05;2.80;;;;;;;;;;4985998;28;20165;-70
2021/06/12 14:33:05;;;;;;;5.15;2.65;;;;;;;;;;5001623;28;20556;-71
2021/06/12 14:35:30;;;;;;;5.68;2.90;;;;;;;;;;4986694;28;20489;-72
2021/06/12 14:37:55;;;;;;;3.60;2.47;;;;;;;;;;4986652;28;20026;-71
2021/06/12 14:40:20;;;;;;;3.75;2.33;;;;;;;;;;4986458;28;20304;-70
2021/06/12 14:42:46;;;;;;;3.72;2.03;;;;;;;;;;4987257;28;21467;-71
2021/06/12 14:45:11;;;;;;;4.82;2.05;;;;;;;;;;4991712;28;20413;-71
2021/06/12 14:47:37;;;;;;;4.00;2.20;;;;;;;;;;4992223;28;20049;-71
2021/06/12 14:50:02;;;;;;;4.53;2.10;;;;;;;;;;4990350;28;20493;-73
2021/06/12 14:52:28;;;;;;;5.28;2.85;;;;;;;;;;4990368;28;20404;-71
2021/06/12 14:54:53;;;;;;;2.65;2.13;;;;;;;;;;4990791;28;20033;-71
2021/06/12 14:57:18;;;;;;;4.63;2.60;;;;;;;;;;4990558;28;20030;-72
2021/06/12 14:59:44;;;;;;;3.88;2.88;;;;;;;;;;4990259;28;20037;-71
2021/06/12 15:02:09;;;;;;;4.75;2.72;;;;;;;;;;4991890;28;20550;-71
2021/06/12 15:04:34;;;;;;;5.13;2.83;;;;;;;;;;4990813;28;20109;-71
2021/06/12 15:07:00;;;;;;;5.77;2.93;;;;;;;;;;4991124;28;20280;-71
2021/06/12 15:09:25;;;;;;;3.05;2.72;;;;;;;;;;4990686;28;20274;-70
2021/06/12 15:11:50;;;;;;;5.37;2.70;;;;;;;;;;4990393;28;20484;-70
2021/06/12 15:14:15;;;;;;;5.00;2.53;;;;;;;;;;4989323;28;20027;-70
2021/06/12 15:16:41;;;;;;;3.55;2.38;;;;;;;;;;4990611;28;20372;-72
2021/06/12 15:19:09;;;;;;;5.32;2.45;;;;;;;;;;4990359;28;20889;-70
2021/06/12 15:21:34;;;;;;;3.67;2.53;;;;;;;;;;4990147;28;20042;-69
2021/06/12 15:24:00;;;;;;;3.58;2.20;;;;;;;;;;4990112;28;20416;-70
2021/06/12 15:26:25;;;;;;;3.23;2.00;;;;;;;;;;4991427;28;20072;-71
2021/06/12 15:28:50;;;;;;;3.00;2.00;;;;;;;;;;4990317;28;20273;-74
2021/06/12 15:31:15;;;;;;;3.05;2.30;;;;;;;;;;4991449;28;20019;-73
2021/06/12 15:33:42;;;;;;;3.28;2.40;;;;;;;;;;4991496;28;20019;-73
2021/06/12 15:36:08;;;;;;;3.42;2.10;;;;;;;;;;4991827;28;20030;-74
2021/06/12 15:38:33;;;;;;;2.88;2.22;;;;;;;;;;4992159;28;20611;-75
2021/06/12 15:40:58;;;;;;;4.77;2.43;;;;;;;;;;4994274;28;20026;-72
2021/06/12 15:43:23;;;;;;;3.23;2.30;;;;;;;;;;4993270;28;20018;-72
2021/06/12 15:45:49;;;;;;;4.13;2.25;;;;;;;;;;5006484;28;20276;-75
2021/06/12 15:48:14;;;;;;;6.50;2.23;;;;;;;;;;5016353;28;20010;-74
2021/06/12 15:50:39;;;;;;;4.73;2.87;;;;;;;;;;5015352;28;20027;-73
2021/06/12 15:53:04;;;;;;;4.65;2.70;;;;;;;;;;5014582;28;20058;-72
2021/06/12 15:55:31;;;;;;;4.43;2.67;;;;;;;;;;4998616;28;20022;-71
2021/06/12 15:57:56;;;;;;;3.92;2.28;;;;;;;;;;4987800;28;20339;-72
2021/06/12 16:00:22;;;;;;;3.83;2.72;;;;;;;;;;4987187;28;20858;-73
2021/06/12 16:02:47;;;;;;;4.03;2.90;;;;;;;;;;4989217;28;20038;-73
2021/06/12 16:05:13;;;;;;;4.75;3.30;;;;;;;;;;4987580;28;20141;-72
2021/06/12 16:07:39;;;;;;;4.57;2.85;;;;;;;;;;4990117;28;20034;-74
2021/06/12 16:10:04;;;;;;;4.95;2.80;;;;;;;;;;5005505;28;20533;-72
2021/06/12 16:12:30;;;;;;;3.90;2.70;;;;;;;;;;4990051;28;20030;-72
2021/06/12 16:14:55;;;;;;;4.47;2.95;;;;;;;;;;4990324;28;20072;-71
2021/06/12 16:17:20;;;;;;;4.20;2.70;;;;;;;;;;4989802;28;20032;-71
2021/06/12 16:19:46;;;;;;;5.03;3.00;;;;;;;;;;4989818;28;20046;-72
2021/06/12 16:22:11;;;;;;;5.10;2.70;;;;;;;;;;4990017;28;20054;-71
2021/06/12 16:24:37;;;;;;;5.50;2.60;;;;;;;;;;5005407;28;20041;-72
2021/06/12 16:27:02;;;;;;;3.78;2.30;;;;;;;;;;4990380;28;20285;-71
2021/06/12 16:29:27;;;;;;;4.80;2.65;;;;;;;;;;4990186;28;20122;-80
2021/06/12 16:31:53;;;;;;;5.63;2.70;;;;;;;;;;4991953;28;20408;-76
2021/06/12 16:34:20;;;;;;;3.40;2.50;;;;;;;;;;4990786;28;20360;-71
2021/06/12 16:36:45;;;;;;;4.35;2.60;;;;;;;;;;4990761;28;20026;-70
2021/06/12 16:39:11;;;;;;;4.82;2.55;;;;;;;;;;4990277;28;20041;-70
2021/06/12 16:41:36;;;;;;;3.38;2.33;;;;;;;;;;4990446;28;20026;-70
2021/06/12 16:44:01;;;;;;;3.60;2.58;;;;;;;;;;4989819;28;20089;-71
2021/06/12 16:46:27;;;;;;;4.63;2.80;;;;;;;;;;4987587;28;20046;-69
2021/06/12 16:48:52;;;;;;;4.55;2.60;;;;;;;;;;4988174;28;20193;-69
2021/06/12 16:51:18;;;;;;;3.10;2.60;;;;;;;;;;4989734;28;20021;-73
2021/06/12 16:53:44;;;;;;;2.95;2.42;;;;;;;;;;4991591;28;20026;-75
2021/06/12 17:01:12;;;;;;;3.72;2.55;;;;;;;;;;4991950;28;20040;-76
2021/06/12 17:03:38;;;;;;;3.40;2.70;;;;;;;;;;4992233;28;20023;-75
2021/06/12 17:06:03;;;;;;;5.07;2.43;;;;;;;;;;4991114;28;20018;-75
2021/06/12 17:08:29;;;;;;;2.65;2.22;;;;;;;;;;4990678;28;20452;-75
2021/06/12 17:10:54;;;;;;;3.87;2.30;;;;;;;;;;4990182;28;20029;-76
2021/06/12 17:13:19;;;;;;;4.10;2.80;;;;;;;;;;4992531;28;20022;-76
2021/06/12 17:15:44;;;;;;;3.53;2.40;;;;;;;;;;4992149;28;20484;-76
2021/06/12 17:18:10;;;;;;;5.70;2.33;;;;;;;;;;4990812;28;20041;-76
2021/06/12 17:20:35;;;;;;;5.27;3.07;;;;;;;;;;4991250;28;20261;-76
2021/06/12 17:23:00;;;;;;;8.20;3.28;;;;;;;;;;4990689;28;21173;-75
2021/06/12 17:25:26;;;;;;;6.63;3.20;;;;;;;;;;4991754;28;20026;-75
2021/06/12 17:27:51;;;;;;;4.68;2.72;;;;;;;;;;4991480;28;20018;-75
2021/06/12 17:30:17;;;;;;;20.23;6.53;;;;;;;;;;4992253;28;20316;-80
2021/06/12 17:32:42;;;;;;;15.57;4.50;;;;;;;;;;5005397;28;20042;-71
2021/06/12 17:35:08;;;;;;;10.23;3.70;;;;;;;;;;5020907;28;20034;-73
2021/06/12 17:37:33;;;;;;;10.43;3.55;;;;;;;;;;5005929;28;20053;-75
2021/06/12 17:39:58;;;;;;;9.68;3.50;;;;;;;;;;5011533;28;20034;-73
2021/06/12 17:42:24;;;;;;;6.03;3.10;;;;;;;;;;5002168;28;20412;-76
2021/06/12 17:44:49;;;;;;;3.67;2.72;;;;;;;;;;5000411;28;20261;-76
2021/06/12 17:47:14;;;;;;;4.70;2.73;;;;;;;;;;4998879;28;20108;-79
2021/06/12 17:49:39;;;;;;;6.40;3.17;;;;;;;;;;5016776;28;20025;-78
2021/06/12 17:52:05;;;;;;;4.93;2.97;;;;;;;;;;5003747;28;20030;-77
2021/06/12 17:54:30;;;;;;;5.95;3.17;;;;;;;;;;5000511;28;20021;-72
2021/06/12 17:56:56;;;;;;;7.18;3.03;;;;;;;;;;4991711;28;20034;-74
2021/06/12 17:59:21;;;;;;;4.47;3.20;;;;;;;;;;4987464;28;20031;-73
2021/06/12 18:01:46;;;;;;;5.57;3.40;;;;;;;;;;4986959;28;20113;-75
2021/06/12 18:04:11;;;;;;;6.13;3.37;;;;;;;;;;4989125;28;20720;-78
2021/06/12 18:06:37;;;;;;;6.10;3.72;;;;;;;;;;4990022;28;20277;-75
2021/06/12 18:09:02;;;;;;;5.50;3.35;;;;;;;;;;4988305;28;20027;-75
2021/06/12 18:11:28;;;;;;;4.45;3.08;;;;;;;;;;4990410;28;20084;-77
2021/06/12 18:13:53;;;;;;;5.47;3.55;;;;;;;;;;5005796;28;20022;-76
2021/06/12 18:16:26;;;;;;;5.30;3.77;;;;;;;;;;4982305;28;20178;-79
2021/06/12 18:18:51;;;;;;;7.55;4.22;;;;;;;;;;5005909;28;20420;-77
2021/06/12 18:21:16;;;;;;;5.57;4.40;;;;;;;;;;4994183;28;20054;-77
2021/06/12 18:23:42;;;;;;;7.43;5.20;;;;;;;;;;4996656;28;20023;-74
2021/06/12 18:26:07;;;;;;;6.30;4.90;;;;;;;;;;4995156;28;20552;-84
2021/06/12 18:28:32;;;;;;;5.40;4.40;;;;;;;;;;4988503;28;20308;-74
2021/06/12 18:30:57;;;;;;;5.70;4.13;;;;;;;;;;4988293;28;20382;-74
2021/06/12 18:33:24;;;;;;;7.27;4.30;;;;;;;;;;4989295;28;20460;-74
2021/06/12 18:35:50;;;;;;;4.97;3.85;;;;;;;;;;4989439;28;20361;-75
2021/06/12 18:38:15;;;;;;;4.90;3.60;;;;;;;;;;4989044;28;20112;-76
2021/06/12 18:40:41;;;;;;;5.78;3.80;;;;;;;;;;4992964;28;20030;-75
2021/06/12 18:43:07;;;;;;;5.57;3.83;;;;;;;;;;5007981;28;20053;-75
2021/06/12 18:45:32;;;;;;;7.30;4.30;;;;;;;;;;4994152;28;20019;-75
2021/06/12 18:47:57;;;;;;;5.00;3.75;;;;;;;;;;4996579;28;20026;-74
2021/06/12 18:50:23;;;;;;;5.50;4.00;;;;;;;;;;4999035;28;20052;-75
2021/06/12 18:52:48;;;;;;;6.47;4.10;;;;;;;;;;4988594;28;20011;-75
2021/06/12 18:55:14;;;;;;;5.67;4.07;;;;;;;;;;4989392;28;20282;-75
2021/06/12 18:57:39;;;;;;;5.97;3.80;;;;;;;;;;4989569;28;20104;-74
2021/06/12 19:00:08;;;;;;;6.25;4.15;;;;;;;;;;4988061;28;20105;-73
2021/06/12 19:02:35;;;;;;;5.63;4.20;;;;;;;;;;4988611;28;20026;-73
2021/06/12 19:05:00;;;;;;;6.63;3.97;;;;;;;;;;4989313;28;20037;-73
2021/06/12 19:07:25;;;;;;;5.33;3.50;;;;;;;;;;4988994;28;20019;-72
2021/06/12 19:09:51;;;;;;;6.45;3.95;;;;;;;;;;4988687;28;20257;-75
2021/06/12 19:12:16;;;;;;;5.53;3.47;;;;;;;;;;5003067;28;20452;-69
2021/06/12 19:14:41;;;;;;;5.27;3.47;;;;;;;;;;4988132;28;20050;-68
2021/06/12 19:17:07;;;;;;;6.57;3.50;;;;;;;;;;4988080;28;20648;-68
2021/06/12 19:19:32;;;;;;;5.43;3.85;;;;;;;;;;4987360;28;20351;-68
2021/06/12 19:21:57;;;;;;;5.45;3.78;;;;;;;;;;5002481;28;20046;-69
2021/06/12 19:24:23;;;;;;;6.80;3.97;;;;;;;;;;5002089;28;20019;-69
2021/06/12 19:26:48;;;;;;;5.95;3.60;;;;;;;;;;4987522;28;20393;-70
2021/06/12 19:29:13;;;;;;;4.95;3.58;;;;;;;;;;4988323;28;21073;-69
2021/06/12 19:31:38;;;;;;;6.80;3.80;;;;;;;;;;4991230;28;20019;-69
2021/06/12 19:34:05;;;;;;;5.13;3.63;;;;;;;;;;5006346;28;20022;-69
2021/06/12 19:36:32;;;;;;;6.85;3.55;;;;;;;;;;4991078;28;20026;-69
2021/06/12 19:41:23;;;;;;;5.57;3.58;;;;;;;;;;5006229;28;20033;-70
2021/06/12 19:43:49;;;;;;;6.25;3.72;;;;;;;;;;4991221;28;20014;-67
2021/06/12 19:46:14;;;;;;;5.07;4.25;;;;;;;;;;4990493;28;20018;-68
2021/06/12 19:48:40;;;;;;;6.00;4.40;;;;;;;;;;4990477;28;20025;-67
2021/06/12 19:51:06;;;;;;;7.32;4.20;;;;;;;;;;4994209;28;20019;-69